EJA930 KAGS-KHXD
Flight info
| Callsign | EJA930 |
|---|---|
| Flight time | 0h 22m |
| Altitude | 19000 |
| Route | STUGE ALD |
| Aircraft | CL60/M-SBDE1E2E3FGHIJ1J4J5J7M3RWXYZ/LB1V1D1 |
Departure
| Time | 2026-05-05 14:13 |
|---|---|
| Airport | Augusta Regional At Bush Field (KAGS) |
Arrival
| Time | 2026-05-05 14:36 |
|---|---|
| Airport | Hilton Head Airport (KHXD) |
| Time | Latitude | Longitude | Altitude | Speed | Heading |
|---|---|---|---|---|---|
| 2026-05-05 13:50 | 33.37185 | -81.97149 | 144 ft | 0 kts | 348° |
| 2026-05-05 14:09 | 33.37190 | -81.97150 | 144 ft | 3 kts | 348° |
| 2026-05-05 14:10 | 33.37223 | -81.97145 | 145 ft | 6 kts | 47° |
| 2026-05-05 14:10 | 33.37238 | -81.97090 | 145 ft | 7 kts | 61° |
| 2026-05-05 14:10 | 33.37300 | -81.97088 | 145 ft | 11 kts | 348° |
| 2026-05-05 14:10 | 33.37392 | -81.97111 | 146 ft | 14 kts | 348° |
| 2026-05-05 14:11 | 33.37472 | -81.97090 | 145 ft | 14 kts | 77° |
| 2026-05-05 14:11 | 33.37537 | -81.97043 | 144 ft | 15 kts | 347° |
| 2026-05-05 14:11 | 33.37652 | -81.97072 | 145 ft | 18 kts | 347° |
| 2026-05-05 14:11 | 33.37790 | -81.97105 | 146 ft | 21 kts | 348° |
| 2026-05-05 14:12 | 33.37943 | -81.97144 | 146 ft | 19 kts | 348° |
| 2026-05-05 14:12 | 33.38084 | -81.97179 | 145 ft | 19 kts | 348° |
| 2026-05-05 14:12 | 33.38186 | -81.97201 | 144 ft | 11 kts | 8° |
| 2026-05-05 14:12 | 33.38217 | -81.97123 | 143 ft | 9 kts | 77° |
| 2026-05-05 14:13 | 33.38198 | -81.97073 | 142 ft | 9 kts | 168° |
| 2026-05-05 14:13 | 33.37927 | -81.97006 | 144 ft | 94 kts | 168° |
| 2026-05-05 14:13 | 33.36938 | -81.96760 | 349 ft | 176 kts | 168° |
| 2026-05-05 14:13 | 33.35746 | -81.96464 | 1547 ft | 192 kts | 169° |
| 2026-05-05 14:14 | 33.34415 | -81.96129 | 2547 ft | 205 kts | 168° |
| 2026-05-05 14:14 | 33.33011 | -81.95670 | 3867 ft | 220 kts | 157° |
| 2026-05-05 14:14 | 33.31795 | -81.94495 | 5057 ft | 247 kts | 124° |
| 2026-05-05 14:14 | 33.31089 | -81.92594 | 6326 ft | 266 kts | 112° |
| 2026-05-05 14:15 | 33.30432 | -81.90515 | 7748 ft | 276 kts | 113° |
| 2026-05-05 14:15 | 33.29981 | -81.89106 | 8711 ft | 281 kts | 114° |
| 2026-05-05 14:15 | 33.29286 | -81.86945 | 10138 ft | 287 kts | 114° |
| 2026-05-05 14:15 | 33.28266 | -81.83805 | 11108 ft | 330 kts | 114° |
| 2026-05-05 14:16 | 33.27414 | -81.81184 | 11902 ft | 354 kts | 113° |
| 2026-05-05 14:16 | 33.26513 | -81.78413 | 12946 ft | 367 kts | 113° |
| 2026-05-05 14:16 | 33.25577 | -81.75541 | 14035 ft | 378 kts | 113° |
| 2026-05-05 14:16 | 33.24620 | -81.72609 | 15111 ft | 386 kts | 112° |
| 2026-05-05 14:17 | 33.23636 | -81.69599 | 16159 ft | 394 kts | 112° |
| 2026-05-05 14:17 | 33.22635 | -81.66543 | 17121 ft | 403 kts | 112° |
| 2026-05-05 14:17 | 33.21605 | -81.63402 | 18055 ft | 412 kts | 111° |
| 2026-05-05 14:17 | 33.20542 | -81.60169 | 18704 ft | 422 kts | 111° |
| 2026-05-05 14:18 | 33.19469 | -81.56907 | 18972 ft | 424 kts | 111° |
| 2026-05-05 14:18 | 33.18387 | -81.53624 | 19076 ft | 423 kts | 111° |
| 2026-05-05 14:18 | 33.17679 | -81.51476 | 19098 ft | 423 kts | 111° |
| 2026-05-05 14:18 | 33.15846 | -81.47396 | 19108 ft | 419 kts | 129° |
| 2026-05-05 14:19 | 33.13855 | -81.44820 | 19097 ft | 417 kts | 135° |
| 2026-05-05 14:19 | 33.11844 | -81.42338 | 19102 ft | 417 kts | 135° |
| 2026-05-05 14:19 | 33.09851 | -81.39871 | 19102 ft | 417 kts | 135° |
| 2026-05-05 14:19 | 33.07831 | -81.37369 | 19105 ft | 417 kts | 135° |
| 2026-05-05 14:20 | 33.05808 | -81.34866 | 19033 ft | 419 kts | 135° |
| 2026-05-05 14:20 | 33.04448 | -81.33184 | 18747 ft | 420 kts | 135° |
| 2026-05-05 14:20 | 33.01759 | -81.29858 | 18064 ft | 412 kts | 135° |
| 2026-05-05 14:20 | 32.99770 | -81.27406 | 17388 ft | 410 kts | 136° |
| 2026-05-05 14:21 | 32.97819 | -81.25005 | 16885 ft | 399 kts | 136° |
| 2026-05-05 14:21 | 32.95892 | -81.22634 | 16350 ft | 396 kts | 136° |
| 2026-05-05 14:21 | 32.93990 | -81.20297 | 15838 ft | 391 kts | 136° |
| 2026-05-05 14:21 | 32.92120 | -81.17999 | 15317 ft | 387 kts | 136° |
| 2026-05-05 14:22 | 32.90256 | -81.15711 | 14808 ft | 382 kts | 136° |
| 2026-05-05 14:22 | 32.88414 | -81.13450 | 14303 ft | 378 kts | 136° |
| 2026-05-05 14:22 | 32.86571 | -81.11190 | 13797 ft | 370 kts | 136° |
| 2026-05-05 14:22 | 32.84808 | -81.09029 | 13311 ft | 361 kts | 136° |
| 2026-05-05 14:23 | 32.83091 | -81.06925 | 12839 ft | 351 kts | 136° |
| 2026-05-05 14:23 | 32.81409 | -81.04864 | 12380 ft | 341 kts | 136° |
| 2026-05-05 14:23 | 32.79780 | -81.02871 | 11930 ft | 333 kts | 136° |
| 2026-05-05 14:23 | 32.78198 | -81.00935 | 11499 ft | 324 kts | 136° |
| 2026-05-05 14:24 | 32.76643 | -80.99034 | 11072 ft | 316 kts | 136° |
| 2026-05-05 14:24 | 32.75132 | -80.97189 | 10658 ft | 309 kts | 136° |
| 2026-05-05 14:24 | 32.73638 | -80.95365 | 10250 ft | 302 kts | 136° |
| 2026-05-05 14:24 | 32.72205 | -80.93617 | 9859 ft | 296 kts | 136° |
| 2026-05-05 14:25 | 32.70781 | -80.91879 | 9468 ft | 291 kts | 136° |
| 2026-05-05 14:25 | 32.69390 | -80.90184 | 9087 ft | 285 kts | 136° |
| 2026-05-05 14:25 | 32.68021 | -80.88516 | 8715 ft | 280 kts | 136° |
| 2026-05-05 14:25 | 32.66678 | -80.86882 | 8346 ft | 274 kts | 135° |
| 2026-05-05 14:26 | 32.65343 | -80.85256 | 7987 ft | 269 kts | 135° |
| 2026-05-05 14:26 | 32.64047 | -80.83681 | 7629 ft | 268 kts | 135° |
| 2026-05-05 14:26 | 32.62747 | -80.82100 | 7271 ft | 268 kts | 135° |
| 2026-05-05 14:26 | 32.61866 | -80.81029 | 7034 ft | 266 kts | 135° |
| 2026-05-05 14:27 | 32.60149 | -80.78944 | 6568 ft | 262 kts | 135° |
| 2026-05-05 14:27 | 32.59305 | -80.77920 | 6341 ft | 259 kts | 135° |
| 2026-05-05 14:27 | 32.57658 | -80.75919 | 5892 ft | 253 kts | 135° |
| 2026-05-05 14:27 | 32.56434 | -80.74435 | 5556 ft | 248 kts | 135° |
| 2026-05-05 14:28 | 32.55229 | -80.72974 | 5230 ft | 243 kts | 135° |
| 2026-05-05 14:28 | 32.54064 | -80.71561 | 4911 ft | 239 kts | 135° |
| 2026-05-05 14:28 | 32.52910 | -80.70163 | 4597 ft | 236 kts | 135° |
| 2026-05-05 14:28 | 32.51764 | -80.68775 | 4285 ft | 232 kts | 135° |
| 2026-05-05 14:29 | 32.50641 | -80.67416 | 3980 ft | 228 kts | 135° |
| 2026-05-05 14:29 | 32.49548 | -80.66092 | 3679 ft | 225 kts | 135° |
| 2026-05-05 14:29 | 32.48435 | -80.64745 | 3376 ft | 237 kts | 135° |
| 2026-05-05 14:29 | 32.47270 | -80.63338 | 3047 ft | 239 kts | 135° |
| 2026-05-05 14:30 | 32.46104 | -80.61926 | 2740 ft | 234 kts | 135° |
| 2026-05-05 14:30 | 32.44978 | -80.60563 | 2435 ft | 230 kts | 135° |
| 2026-05-05 14:30 | 32.43798 | -80.59347 | 2245 ft | 221 kts | 150° |
| 2026-05-05 14:30 | 32.42350 | -80.58825 | 2103 ft | 218 kts | 176° |
| 2026-05-05 14:31 | 32.40862 | -80.59116 | 1959 ft | 221 kts | 200° |
| 2026-05-05 14:31 | 32.39458 | -80.59910 | 1837 ft | 220 kts | 205° |
| 2026-05-05 14:31 | 32.38122 | -80.60705 | 1771 ft | 207 kts | 204° |
| 2026-05-05 14:31 | 32.36864 | -80.61436 | 1777 ft | 198 kts | 203° |
| 2026-05-05 14:32 | 32.35655 | -80.62135 | 1775 ft | 186 kts | 204° |
| 2026-05-05 14:32 | 32.34887 | -80.62577 | 1776 ft | 182 kts | 204° |
| 2026-05-05 14:32 | 32.33359 | -80.63457 | 1762 ft | 181 kts | 203° |
| 2026-05-05 14:32 | 32.32236 | -80.64102 | 1779 ft | 173 kts | 203° |
| 2026-05-05 14:33 | 32.31198 | -80.64701 | 1783 ft | 162 kts | 203° |
| 2026-05-05 14:33 | 32.30173 | -80.65291 | 1576 ft | 162 kts | 203° |
| 2026-05-05 14:33 | 32.29191 | -80.65858 | 1410 ft | 145 kts | 204° |
| 2026-05-05 14:33 | 32.28361 | -80.66339 | 1244 ft | 126 kts | 203° |
| 2026-05-05 14:34 | 32.27589 | -80.66782 | 1052 ft | 121 kts | 203° |
| 2026-05-05 14:34 | 32.26836 | -80.67214 | 898 ft | 119 kts | 203° |
| 2026-05-05 14:34 | 32.26088 | -80.67647 | 728 ft | 118 kts | 205° |
| 2026-05-05 14:34 | 32.25348 | -80.68082 | 569 ft | 118 kts | 204° |
| 2026-05-05 14:35 | 32.24859 | -80.68366 | 469 ft | 116 kts | 204° |
| 2026-05-05 14:35 | 32.23889 | -80.68922 | 252 ft | 116 kts | 204° |
| 2026-05-05 14:35 | 32.23163 | -80.69335 | 87 ft | 116 kts | 205° |
| 2026-05-05 14:35 | 32.22475 | -80.69729 | 15 ft | 95 kts | 204° |
| 2026-05-05 14:36 | 32.22047 | -80.69971 | 14 ft | 52 kts | 206° |
| 2026-05-05 14:36 | 32.21927 | -80.70036 | 14 ft | 11 kts | 184° |
| 2026-05-05 14:36 | 32.21886 | -80.69986 | 14 ft | 5 kts | 114° |
| 2026-05-05 14:36 | 32.21916 | -80.69939 | 14 ft | 10 kts | 26° |
| 2026-05-05 14:37 | 32.21997 | -80.69892 | 14 ft | 15 kts | 26° |
| 2026-05-05 14:37 | 32.22102 | -80.69830 | 14 ft | 17 kts | 27° |
| 2026-05-05 14:37 | 32.22156 | -80.69772 | 14 ft | 7 kts | 93° |
| 2026-05-05 14:37 | 32.22161 | -80.69733 | 14 ft | 4 kts | 35° |
| 2026-05-05 14:38 | 32.22171 | -80.69731 | 14 ft | 0 kts | 4° |